Flight Track Log - Related Links

Times and Time Zones

All times are in EDT time to prevent confusion due to time zone crossing. See the ASQ5836 flight status page for this flight to view local times or setup timezone preferences in your user account.

Time Position Orientation Groundspeed Altitude Reporting Facility
EDT Latitude Longitude Course Direction KTS MPH feet Rate Location/Type
Fri 12:33:20 PM 41.3925 -81.8811 236° Southwest 155 178 1,900  Level Cleveland Center
Fri 12:33:45 PM 41.3881 -81.9083 258° West 168 193 2,800 1,385 Climbing Cleveland Center
Fri 12:34:12 PM 41.3844 -81.9303 258° West 170 196 3,100 1,700 Climbing Cleveland Center
Fri 12:34:45 PM 41.3725 -81.9839 253° West 220 253 4,500 1,839 Climbing Cleveland Center
Fri 12:35:14 PM 41.3650 -82.0061 246° West 199 229 5,000 1,636 Climbing Cleveland Center
Fri 12:35:40 PM 41.3497 -82.0469 244° Southwest 241 277 6,000 2,129 Climbing Cleveland Center
Fri 12:36:16 PM 41.3364 -82.0872 246° West 234 269 7,200 2,143 Climbing Cleveland Center
Fri 12:37:00 PM 41.2246 -82.4180 248° West  Level FlightAware Approximate
Fri 12:37:18 PM 41.3025 -82.1839 245° Southwest 245 282 9,500  Level Cleveland Center
Fri 12:38:00 PM 41.1854 -82.5291 236° Southwest  Level FlightAware Approximate
Fri 12:38:20 PM 41.2711 -82.2697 244° Southwest 254 292 10,900  Level Cleveland Center
Fri 12:40:24 PM 41.1983 -82.4778 245° Southwest 318 366 12,800 968 Climbing Cleveland Center
Fri 12:41:26 PM 41.1592 -82.5856 244° Southwest 319 367 13,900 919 Climbing Cleveland Center
Fri 12:42:28 PM 41.1192 -82.6983 245° Southwest 331 381 14,700 1,065 Climbing Cleveland Center
Fri 12:43:30 PM 41.0942 -82.8178 255° West 333 383 16,100 1,488 Climbing Cleveland Center
Fri 12:44:33 PM 41.0756 -82.9533 260° West 322 371 17,800 1,632 Climbing Cleveland Center
Fri 12:45:35 PM 41.0486 -83.0628 252° West 316 364 19,500 1,403 Climbing Cleveland Center
Fri 12:46:37 PM 40.9922 -83.1531 230° Southwest 316 364 20,700 1,113 Climbing Cleveland Center
Fri 12:47:39 PM 40.9408 -83.2378 231° Southwest 322 371 21,800 1,258 Climbing Cleveland Center
Fri 12:48:41 PM 40.8700 -83.3511 230° Southwest 331 381 23,300 1,355 Climbing Cleveland Center
Fri 12:49:43 PM 40.8106 -83.4464 231° Southwest 335 386 24,600 1,403 Climbing Cleveland Center
Fri 12:50:45 PM 40.7528 -83.5392 231° Southwest 333 383 26,200 1,248 Climbing Cleveland Center
Fri 12:51:48 PM 40.6961 -83.6303 231° Southwest 327 376 27,200 1,097 Climbing Indianapolis Center
Fri 12:53:51 PM 40.5711 -83.8300 231° Southwest 325 374 29,600 1,097 Climbing Cleveland Center
Fri 12:54:54 PM 40.5131 -83.9208 230° Southwest 325 374 30,600 968 Climbing Cleveland Center
Fri 12:55:55 PM 40.4544 -84.0128 230° Southwest 326 375 31,600 976 Climbing Indianapolis Center
Fri 12:56:57 PM 40.4114 -84.1211 242° Southwest 334 384 32,600 919 Climbing Indianapolis Center
Fri 12:57:59 PM 40.3744 -84.2336 247° West 336 387 33,500 1,016 Climbing Indianapolis Center
Fri 12:59:01 PM 40.3225 -84.3631 242° Southwest 337 388 34,700 871 Climbing Indianapolis Center
Fri 01:00:03 PM 40.2700 -84.4603 235° Southwest 336 387 35,300 581 Climbing Indianapolis Center
Fri 01:01:05 PM 40.2067 -84.5525 228° Southwest 340 391 35,900 339 Climbing Indianapolis Center
Fri 01:02:07 PM 40.1447 -84.6447 229° Southwest 340 391 36,000 48 Climbing Indianapolis Center
Fri 01:03:09 PM 40.0792 -84.7419 229° Southwest 351 404 36,000  Level Indianapolis Center
Fri 01:04:11 PM 40.0103 -84.8433 228° Southwest 367 422 36,000  Level Indianapolis Center
Fri 01:05:13 PM 39.9314 -84.9611 229° Southwest 387 445 36,000  Level Indianapolis Center
Fri 01:06:15 PM 39.8475 -85.0578 222° Southwest 396 456 36,000  Level Indianapolis Center
Fri 01:07:17 PM 39.7550 -85.1503 218° Southwest 410 472 36,000  Level Indianapolis Center
Fri 01:08:19 PM 39.6439 -85.2589 217° Southwest 414 476 36,000  Level Indianapolis Center
Fri 01:09:20 PM 39.5519 -85.3486 217° Southwest 414 476 36,000  Level Indianapolis Center
Fri 01:10:22 PM 39.4622 -85.4406 218° Southwest 413 475 36,000  Level Indianapolis Center
Fri 01:11:24 PM 39.3886 -85.5539 230° Southwest 411 473 36,000  Level Indianapolis Center
Fri 01:12:26 PM 39.3164 -85.6656 230° Southwest 409 471 36,000  Level Indianapolis Center
Fri 01:13:28 PM 39.2447 -85.7792 231° Southwest 408 470 36,000  Level Indianapolis Center
Fri 01:14:30 PM 39.1714 -85.8911 230° Southwest 408 470 36,000  Level Indianapolis Center
Fri 01:15:32 PM 39.1000 -86.0031 231° Southwest 408 470 36,000  Level Indianapolis Center
Fri 01:16:34 PM 39.0122 -86.1364 230° Southwest 407 468 36,000  Level Indianapolis Center
Fri 01:17:36 PM 38.9400 -86.2475 230° Southwest 407 468 36,000  Level Indianapolis Center
Fri 01:18:38 PM 38.8694 -86.3544 230° Southwest 407 468 36,000  Level Indianapolis Center
Fri 01:19:40 PM 38.7967 -86.4647 230° Southwest 407 468 36,000  Level Indianapolis Center
Fri 01:20:42 PM 38.7233 -86.5750 230° Southwest 407 468 36,000  Level Indianapolis Center
Fri 01:21:44 PM 38.6358 -86.7064 230° Southwest 406 467 36,000  Level Indianapolis Center
Fri 01:22:46 PM 38.5628 -86.8161 230° Southwest 406 467 36,000  Level Indianapolis Center
Fri 01:23:48 PM 38.4903 -86.9253 230° Southwest 406 467 36,000  Level Indianapolis Center
Fri 01:24:49 PM 38.4158 -87.0375 230° Southwest 405 466 36,000  Level Indianapolis Center
Fri 01:25:51 PM 38.3422 -87.1472 229° Southwest 406 467 36,000  Level Indianapolis Center
Fri 01:26:53 PM 38.2594 -87.2692 229° Southwest 407 468 36,000  Level Indianapolis Center
Fri 01:27:55 PM 38.1856 -87.3786 229° Southwest 407 468 36,000  Level Indianapolis Center
Fri 01:28:57 PM 38.1119 -87.4875 229° Southwest 407 468 36,000  Level Indianapolis Center
Fri 01:29:59 PM 38.0375 -87.5956 229° Southwest 407 468 36,000  Level Indianapolis Center
Fri 01:31:01 PM 37.9636 -87.7036 229° Southwest 406 467 36,000  Level Indianapolis Center
Fri 01:32:03 PM 37.8900 -87.8103 229° Southwest 404 465 36,000  Level Indianapolis Center
Fri 01:33:05 PM 37.8169 -87.9172 229° Southwest 404 465 36,000  Level Indianapolis Center
Fri 01:34:07 PM 37.7286 -88.0450 229° Southwest 402 463 36,000  Level Indianapolis Center
Fri 01:35:09 PM 37.6558 -88.1503 229° Southwest 400 460 36,000  Level Indianapolis Center
Fri 01:36:11 PM 37.5836 -88.2542 229° Southwest 400 460 36,000  Level Indianapolis Center
Fri 01:37:12 PM 37.5103 -88.3592 229° Southwest 399 459 36,000  Level Indianapolis Center
Fri 01:38:14 PM 37.4350 -88.4664 229° Southwest 399 459 36,000  Level Indianapolis Center
Fri 01:39:16 PM 37.3628 -88.5686 228° Southwest 399 459 36,000  Level Indianapolis Center
Fri 01:40:18 PM 37.2889 -88.6750 229° Southwest 399 459 36,000  Level Indianapolis Center
Fri 01:41:20 PM 37.2147 -88.7794 228° Southwest 399 459 36,000  Level Indianapolis Center
Fri 01:42:21 PM 37.1253 -88.9056 228° Southwest 399 459 36,000  Level Indianapolis Center
Fri 01:43:23 PM 37.0514 -89.0111 229° Southwest 399 459 36,000  Level Indianapolis Center
Fri 01:44:51 PM 36.9500 -89.1514 228° Southwest 400 460 36,000  Level Memphis Center
Fri 01:45:53 PM 36.8758 -89.2536 228° Southwest 400 460 36,000  Level Memphis Center
Fri 01:46:55 PM 36.7875 -89.3775 228° Southwest 400 460 36,000  Level Memphis Center
Fri 01:47:57 PM 36.7133 -89.4800 228° Southwest 400 460 36,000  Level Memphis Center
Fri 01:48:59 PM 36.6386 -89.5825 228° Southwest 401 461 36,000  Level Memphis Center
Fri 01:50:01 PM 36.5639 -89.6842 228° Southwest 401 461 36,000  Level Memphis Center
Fri 01:51:03 PM 36.4903 -89.7869 228° Southwest 401 461 36,000  Level Memphis Center
Fri 01:52:05 PM 36.4000 -89.9092 227° Southwest 401 461 36,000  Level Memphis Center
Fri 01:53:07 PM 36.3256 -90.0108 228° Southwest 401 461 36,000  Level Memphis Center
Fri 01:54:09 PM 36.2503 -90.1128 228° Southwest 401 461 36,000  Level Memphis Center
Fri 01:55:12 PM 36.1750 -90.2144 227° Southwest 401 461 36,000  Level Memphis Center
Fri 01:56:14 PM 36.1014 -90.3161 228° Southwest 401 461 36,000  Level Memphis Center
Fri 01:57:16 PM 36.0117 -90.4375 228° Southwest 399 459 36,000  Level Memphis Center
Fri 01:58:18 PM 35.9367 -90.5383 227° Southwest 399 459 36,000  Level Memphis Center
Fri 01:59:20 PM 35.8600 -90.6389 227° Southwest 399 459 36,000  Level Memphis Center
Fri 02:00:22 PM 35.7847 -90.7392 227° Southwest 399 459 36,000  Level Memphis Center
Fri 02:01:24 PM 35.7089 -90.8400 227° Southwest 399 459 36,000  Level Memphis Center
Fri 02:02:26 PM 35.6339 -90.9408 228° Southwest 399 459 36,000  Level Memphis Center
Fri 02:03:28 PM 35.5422 -91.0617 227° Southwest 400 460 36,000  Level Memphis Center
Fri 02:04:30 PM 35.4758 -91.1506 227° Southwest 400 460 36,000  Level Memphis Center
Fri 02:05:32 PM 35.3811 -91.2703 226° Southwest 404 465 36,000  Level Memphis Center
Fri 02:06:35 PM 35.3044 -91.3717 227° Southwest 405 466 36,000  Level Memphis Center
Fri 02:07:37 PM 35.2286 -91.4714 227° Southwest 404 465 36,000  Level Memphis Center
Fri 02:08:39 PM 35.1503 -91.5725 227° Southwest 405 466 36,000  Level Memphis Center
Fri 02:09:41 PM 35.0708 -91.6750 227° Southwest 409 471 36,000  Level Memphis Center
Fri 02:10:43 PM 34.9925 -91.7778 227° Southwest 409 471 36,000  Level Memphis Center
Fri 02:11:45 PM 34.9128 -91.8792 226° Southwest 410 472 36,000  Level Memphis Center
Fri 02:12:47 PM 34.8158 -92.0022 226° Southwest 416 479 36,000  Level Memphis Center
Fri 02:13:49 PM 34.7378 -92.1050 227° Southwest 416 479 36,000  Level Memphis Center
Fri 02:14:51 PM 34.6703 -92.2106 232° Southwest 405 466 36,000  Level Memphis Center
Fri 02:15:53 PM 34.6378 -92.3347 252° West 389 448 36,000  Level Memphis Center
Fri 02:16:55 PM 34.6047 -92.4594 252° West 388 447 36,000  Level Memphis Center
Fri 02:17:57 PM 34.5719 -92.5822 252° West 387 445 36,000  Level Memphis Center
Fri 02:19:00 PM 34.5328 -92.7322 252° West 387 445 36,000  Level Memphis Center
Fri 02:20:02 PM 34.4992 -92.8567 252° West 387 445 36,000  Level Memphis Center
Fri 02:21:04 PM 34.4658 -92.9797 252° West 387 445 36,000  Level Memphis Center
Fri 02:22:06 PM 34.4328 -93.1033 252° West 387 445 36,000  Level Memphis Center
Fri 02:23:08 PM 34.3997 -93.2286 252° West 387 445 36,000  Level Memphis Center
Fri 02:24:10 PM 34.3653 -93.3525 251° West 387 445 36,000  Level Memphis Center
Fri 02:25:12 PM 34.3308 -93.4764 251° West 387 445 36,000  Level Memphis Center
Fri 02:26:14 PM 34.2939 -93.6078 251° West 387 445 36,000  Level Memphis Center
Fri 02:27:16 PM 34.2539 -93.7567 252° West 388 447 36,000  Level Memphis Center
Fri 02:28:18 PM 34.2192 -93.8803 251° West 389 448 36,000  Level Memphis Center
Fri 02:29:06 PM 34.1931 -93.9800 252° West 390 449 36,000  Level Fort Worth Center
Fri 02:30:08 PM 34.1525 -94.1017 248° West 391 450 36,000  Level Fort Worth Center
Fri 02:31:10 PM 34.1139 -94.2239 249° West 392 451 36,000  Level Fort Worth Center
Fri 02:32:12 PM 34.0742 -94.3456 249° West 393 452 36,000  Level Fort Worth Center
Fri 02:33:14 PM 34.0272 -94.4928 249° West 393 452 36,000 -290 Level Fort Worth Center
Fri 02:34:16 PM 33.9875 -94.6139 248° West 392 451 35,400 -968 Descending Fort Worth Center
Fri 02:35:18 PM 33.9475 -94.7350 248° West 393 452 34,000 -1,306 Descending Fort Worth Center
Fri 02:36:20 PM 33.9086 -94.8514 248° West 383 441 32,700 -1,248 Descending Fort Worth Center
Fri 02:37:23 PM 33.8708 -94.9672 249° West 378 435 31,400 -1,344 Descending Fort Worth Center
Fri 02:38:25 PM 33.8294 -95.0942 249° West 409 471 29,900 -1,645 Descending Fort Worth Center
Fri 02:39:27 PM 33.7783 -95.2478 248° West 413 475 28,000 -1,645 Descending Fort Worth Center
Fri 02:40:29 PM 33.7342 -95.3781 248° West 419 482 26,500 -1,645 Descending Fort Worth Center
Fri 02:41:31 PM 33.6875 -95.5056 246° West 419 482 24,600 -1,984 Descending Fort Worth Center
Fri 02:42:33 PM 33.6381 -95.6403 246° West 411 473 22,400 -2,081 Descending Fort Worth Center
Fri 02:43:35 PM 33.5967 -95.7572 247° West 386 444 20,300 -2,129 Descending Fort Worth Center
Fri 02:44:37 PM 33.5472 -95.8931 246° West 389 448 18,000 -2,081 Descending Fort Worth Center
Fri 02:45:39 PM 33.5028 -96.0083 245° Southwest 381 438 16,000 -2,032 Descending Fort Worth Center
Fri 02:46:41 PM 33.4594 -96.1261 246° West 360 414 13,800 -2,016 Descending Fort Worth Center
Fri 02:47:44 PM 33.4206 -96.2303 246° West 345 397 11,800 -1,344 Descending Fort Worth Center
Fri 02:48:46 PM 33.3853 -96.3236 246° West 307 353 11,000 -677 Descending Fort Worth Center
Fri 02:49:48 PM 33.3486 -96.4164 245° Southwest 292 336 10,400 -1,016 Descending Fort Worth Center
Fri 02:50:50 PM 33.3128 -96.5019 243° Southwest 290 334 8,900 -1,500 Descending Fort Worth Center
Fri 02:51:52 PM 33.2753 -96.5911 243° Southwest 280 322 7,300 -1,500 Descending Fort Worth Center
Fri 02:52:54 PM 33.2447 -96.6722 246° West 271 312 5,800 -1,113 Descending Fort Worth Center
Fri 02:53:56 PM 33.2122 -96.7583 246° West 269 310 5,000 -387 Descending Fort Worth Center
Fri 02:54:58 PM 33.1833 -96.8386 247° West 268 308 5,000 -435 Level Fort Worth Center
Fri 02:56:00 PM 33.1514 -96.9228 246° West 267 307 4,100 -912 Descending Fort Worth Center
Fri 02:57:03 PM 33.1003 -96.9869 226° Southwest 245 282 3,100 -528 Descending Fort Worth Center
Fri 02:58:05 PM 33.0597 -97.0283 221° Southwest 192 221 3,000 -339 Descending Fort Worth Center
Fri 02:59:07 PM 33.0086 -97.0258 178° South 172 198 2,400 -726 Descending Fort Worth Center
Fri 03:00:09 PM 32.9619 -97.0267 181° South 170 196 1,500 -774 Descending Fort Worth Center
Fri 03:01:11 PM 32.9247 -97.0267 180° South 136 157 800 -677 Descending Fort Worth Center

Login

Don't have an account? Register now (free) for customized features, flight alerts, and more!